createdAt,value
2018-01-18T00:01:39.333Z,76.20
2018-01-18T00:04:06.876Z,76.20
2018-01-18T00:06:34.493Z,76.20
2018-01-18T00:09:02.693Z,76.20
2018-01-18T00:11:30.229Z,76.50
2018-01-18T00:13:57.801Z,76.20
2018-01-18T00:16:25.356Z,76.70
2018-01-18T00:18:52.927Z,76.50
2018-01-18T00:21:22.754Z,77.00
2018-01-18T00:23:50.571Z,76.40
2018-01-18T00:26:18.099Z,76.50
2018-01-18T00:28:49.028Z,76.60
2018-01-18T00:31:18.064Z,77.10
2018-01-18T00:33:45.632Z,76.00
2018-01-18T00:36:13.942Z,76.50
2018-01-18T00:38:41.524Z,76.50
2018-01-18T00:41:09.058Z,75.80
2018-01-18T00:43:36.600Z,75.80
2018-01-18T00:46:04.987Z,76.00
2018-01-18T00:48:33.295Z,76.50
2018-01-18T00:51:01.089Z,76.40
2018-01-18T00:53:28.641Z,76.00
2018-01-18T00:55:56.195Z,76.50
2018-01-18T00:58:36.251Z,76.40
2018-01-18T01:01:03.805Z,76.10
2018-01-18T01:03:31.337Z,76.00
2018-01-18T01:05:59.659Z,76.20
2018-01-18T01:08:31.211Z,76.10
2018-01-18T01:10:59.339Z,76.50
2018-01-18T01:13:27.690Z,76.90
2018-01-18T01:15:55.266Z,76.90
2018-01-18T01:18:33.876Z,76.10
2018-01-18T01:21:01.442Z,76.70
2018-01-18T01:23:28.990Z,76.50
2018-01-18T01:25:56.548Z,76.50
2018-01-18T01:28:30.398Z,76.60
2018-01-18T01:30:57.988Z,76.60
2018-01-18T01:33:25.531Z,76.40
2018-01-18T01:35:53.872Z,76.30
2018-01-18T01:38:25.017Z,76.30
2018-01-18T01:40:52.557Z,76.70
2018-01-18T01:43:20.133Z,76.50
2018-01-18T01:45:47.697Z,76.50
2018-01-18T01:48:15.235Z,76.80
2018-01-18T01:50:42.800Z,76.90
2018-01-18T01:55:43.468Z,76.80
2018-01-18T01:58:11.012Z,76.80
2018-01-18T02:00:38.554Z,76.90
2018-01-18T02:03:06.145Z,77.20
2018-01-18T02:05:33.712Z,77.50
2018-01-18T02:08:01.724Z,77.50
2018-01-18T02:10:30.249Z,78.30
2018-01-18T02:12:57.812Z,78.50
2018-01-18T02:15:25.437Z,79.40
2018-01-18T02:18:06.270Z,81.10
2018-01-18T02:20:38.479Z,81.10
2018-01-18T02:23:06.773Z,81.90
2018-01-18T02:25:35.675Z,82.70
2018-01-18T02:28:04.159Z,82.50
2018-01-18T02:30:31.746Z,83.30
2018-01-18T02:32:59.285Z,83.70
2018-01-18T02:35:26.825Z,83.70
2018-01-18T02:37:55.173Z,84.40
2018-01-18T02:40:22.712Z,84.40
2018-01-18T02:42:50.273Z,84.60
2018-01-18T02:45:17.864Z,84.90
2018-01-18T02:47:46.250Z,85.60
2018-01-18T02:50:13.783Z,85.50
2018-01-18T02:52:41.348Z,85.60
2018-01-18T02:55:08.901Z,85.30
2018-01-18T02:57:42.646Z,86.10
2018-01-18T03:00:10.192Z,86.00
2018-01-18T03:02:37.777Z,86.20
2018-01-18T03:05:05.319Z,85.80
2018-01-18T03:07:32.859Z,85.90
2018-01-18T03:10:01.807Z,85.70
2018-01-18T03:12:29.347Z,86.60
2018-01-18T03:14:58.339Z,86.80
2018-01-18T03:17:25.932Z,86.10
2018-01-18T03:19:53.481Z,86.30
2018-01-18T03:22:21.782Z,86.40
2018-01-18T03:24:49.350Z,86.30
2018-01-18T03:27:16.918Z,86.30
2018-01-18T03:29:45.182Z,86.60
2018-01-18T03:32:13.234Z,87.30
2018-01-18T03:34:41.541Z,86.30
2018-01-18T03:37:09.090Z,86.20
2018-01-18T03:39:36.681Z,86.90
2018-01-18T03:42:04.217Z,86.50
2018-01-18T03:44:31.753Z,86.10
2018-01-18T03:47:00.085Z,86.90
2018-01-18T03:49:29.593Z,86.90
2018-01-18T03:51:57.177Z,86.50
2018-01-18T03:54:24.721Z,86.70
2018-01-18T03:56:52.275Z,86.60
2018-01-18T03:59:19.847Z,87.10
2018-01-18T04:01:47.391Z,86.80
2018-01-18T04:04:14.935Z,87.30
2018-01-18T04:06:42.512Z,87.40
2018-01-18T04:09:10.986Z,87.60
2018-01-18T04:11:38.516Z,87.80
2018-01-18T04:14:07.456Z,88.10
2018-01-18T04:16:35.032Z,88.10
2018-01-18T04:19:02.581Z,88.40
2018-01-18T04:21:30.158Z,88.60
2018-01-18T04:23:57.698Z,88.40
2018-01-18T04:26:25.241Z,88.70
2018-01-18T04:28:53.768Z,88.90
2018-01-18T04:31:21.362Z,88.90
2018-01-18T04:33:48.912Z,89.20
2018-01-18T04:36:16.487Z,89.40
2018-01-18T04:38:45.064Z,88.70
2018-01-18T04:41:12.636Z,88.90
2018-01-18T04:43:40.201Z,89.00
2018-01-18T04:46:08.506Z,89.20
2018-01-18T04:48:36.120Z,89.90
2018-01-18T04:51:03.648Z,89.40
2018-01-18T04:53:31.233Z,89.80
2018-01-18T04:55:58.770Z,90.00
2018-01-18T04:58:26.313Z,90.00
2018-01-18T05:00:53.872Z,90.00
2018-01-18T05:03:21.452Z,90.10
2018-01-18T05:05:48.982Z,90.10
2018-01-18T05:08:20.722Z,90.10
2018-01-18T05:10:48.269Z,90.20
2018-01-18T05:13:16.158Z,90.20
2018-01-18T05:15:44.539Z,90.40
2018-01-18T05:18:13.919Z,90.50
2018-01-18T05:20:42.321Z,90.40
2018-01-18T05:23:10.737Z,90.50
2018-01-18T05:25:38.277Z,90.50
2018-01-18T05:28:09.139Z,90.60
2018-01-18T05:30:36.683Z,90.60
2018-01-18T05:33:05.814Z,90.60
2018-01-18T05:35:33.415Z,90.60
2018-01-18T05:38:08.834Z,90.60
2018-01-18T05:40:37.177Z,90.60
2018-01-18T05:43:04.742Z,90.60
2018-01-18T05:45:32.310Z,90.60
2018-01-18T05:48:07.718Z,90.50
2018-01-18T05:50:35.281Z,90.40
2018-01-18T05:53:03.629Z,90.40
2018-01-18T05:55:31.173Z,90.30
2018-01-18T05:58:00.719Z,90.30
2018-01-18T06:00:28.252Z,90.10
2018-01-18T06:02:55.780Z,90.10
2018-01-18T06:05:24.051Z,90.10
2018-01-18T06:07:55.521Z,90.10
2018-01-18T06:10:23.065Z,90.10
2018-01-18T06:12:51.403Z,90.30
2018-01-18T06:15:19.409Z,90.30
2018-01-18T06:17:47.766Z,90.40
2018-01-18T06:20:15.376Z,90.40
2018-01-18T06:22:42.924Z,90.20
2018-01-18T06:25:10.466Z,90.20
2018-01-18T06:27:45.988Z,90.20
2018-01-18T06:30:13.528Z,90.20
2018-01-18T06:32:41.076Z,90.00
2018-01-18T06:35:08.650Z,89.90
2018-01-18T06:37:36.241Z,89.70
2018-01-18T06:40:03.767Z,89.20
2018-01-18T06:42:31.339Z,88.90
2018-01-18T06:44:58.885Z,88.90
2018-01-18T06:47:28.401Z,88.50
2018-01-18T06:49:55.999Z,88.30
2018-01-18T06:52:23.524Z,88.80
2018-01-18T06:54:51.083Z,89.00
2018-01-18T06:57:18.631Z,88.90
2018-01-18T06:59:46.262Z,89.00
2018-01-18T07:02:13.810Z,89.20
2018-01-18T07:04:41.337Z,89.60
2018-01-18T07:07:09.751Z,88.70
2018-01-18T07:09:45.437Z,88.50
2018-01-18T07:12:13.790Z,88.50
2018-01-18T07:14:41.338Z,88.40
2018-01-18T07:17:08.877Z,88.30
2018-01-18T07:19:55.821Z,87.30
2018-01-18T07:22:23.366Z,87.00
2018-01-18T07:24:50.927Z,87.00
2018-01-18T07:27:18.487Z,86.90
2018-01-18T07:29:47.621Z,86.80
2018-01-18T07:32:15.199Z,86.50
2018-01-18T07:34:43.511Z,85.50
2018-01-18T07:37:11.055Z,85.30
2018-01-18T07:39:42.928Z,85.40
2018-01-18T07:42:10.471Z,84.60
2018-01-18T07:44:38.762Z,82.80
2018-01-18T07:47:07.276Z,82.70
2018-01-18T07:49:34.822Z,81.70
2018-01-18T07:52:02.366Z,81.80
2018-01-18T07:54:29.926Z,80.30
2018-01-18T07:57:03.116Z,77.90
2018-01-18T07:59:38.050Z,77.90
2018-01-18T08:02:06.469Z,75.50
2018-01-18T08:04:34.017Z,73.60
2018-01-18T08:07:02.453Z,74.20
2018-01-18T08:09:30.193Z,70.00
2018-01-18T08:11:57.743Z,68.50
2018-01-18T08:14:25.289Z,66.90
2018-01-18T08:16:52.882Z,67.70
2018-01-18T08:19:21.810Z,66.50
2018-01-18T08:21:50.851Z,65.60
2018-01-18T08:24:18.414Z,65.60
2018-01-18T08:26:46.658Z,64.50
2018-01-18T08:29:14.238Z,63.30
2018-01-18T08:31:41.802Z,63.80
2018-01-18T08:34:09.348Z,64.00
2018-01-18T08:36:36.944Z,64.90
2018-01-18T08:39:04.484Z,63.10
2018-01-18T08:41:32.014Z,62.60
2018-01-18T08:44:00.356Z,61.10
2018-01-18T08:46:27.915Z,61.00
2018-01-18T08:49:00.761Z,58.80
2018-01-18T08:51:28.310Z,57.80
2018-01-18T08:53:55.855Z,57.60
2018-01-18T08:56:24.202Z,59.40
2018-01-18T08:58:52.673Z,59.40
2018-01-18T09:01:20.237Z,60.60
2018-01-18T09:03:47.832Z,61.50
2018-01-18T09:06:16.060Z,62.20
2018-01-18T09:08:44.638Z,62.20
2018-01-18T09:11:12.232Z,63.00
2018-01-18T09:13:40.180Z,64.10
2018-01-18T09:16:07.751Z,64.80
2018-01-18T09:18:35.372Z,65.20
2018-01-18T09:21:03.955Z,63.30
2018-01-18T09:23:32.267Z,62.40
2018-01-18T09:25:59.883Z,62.40
2018-01-18T09:28:29.389Z,63.00
2018-01-18T09:30:56.933Z,63.10
2018-01-18T09:33:25.165Z,63.80
2018-01-18T09:35:52.740Z,65.00
2018-01-18T09:38:20.293Z,64.30
2018-01-18T09:40:47.933Z,63.70
2018-01-18T09:43:15.499Z,64.30
2018-01-18T09:45:43.066Z,64.60
2018-01-18T09:48:11.589Z,65.80
2018-01-18T09:50:39.152Z,66.10
2018-01-18T09:53:06.709Z,67.20
2018-01-18T09:55:34.306Z,67.10
2018-01-18T09:58:05.065Z,67.40
2018-01-18T10:00:32.932Z,67.60
2018-01-18T10:03:01.253Z,67.70
2018-01-18T10:05:28.867Z,67.70
2018-01-18T10:07:59.118Z,68.70
2018-01-18T10:10:26.688Z,68.50
2018-01-18T10:12:56.563Z,68.50
2018-01-18T10:15:24.905Z,68.10
2018-01-18T10:17:52.458Z,68.10
2018-01-18T10:20:20.625Z,68.90
2018-01-18T10:22:48.243Z,69.30
2018-01-18T10:25:15.815Z,69.40
2018-01-18T10:27:44.330Z,69.90
2018-01-18T10:30:12.811Z,69.90
2018-01-18T10:32:40.374Z,70.20
2018-01-18T10:35:07.905Z,70.50
2018-01-18T10:37:36.473Z,71.10
2018-01-18T10:40:04.013Z,71.20
2018-01-18T10:42:31.640Z,71.50
2018-01-18T10:44:59.238Z,71.60
2018-01-18T10:47:26.810Z,70.60
2018-01-18T10:49:54.370Z,71.20
2018-01-18T10:52:21.931Z,72.70
2018-01-18T10:54:49.458Z,73.90
2018-01-18T10:57:17.054Z,73.30
2018-01-18T10:59:44.650Z,73.50
2018-01-18T11:02:12.933Z,73.30
2018-01-18T11:04:40.524Z,73.70
2018-01-18T11:07:08.077Z,73.30
2018-01-18T11:09:35.657Z,71.80
2018-01-18T11:12:03.217Z,70.60
2018-01-18T11:14:30.777Z,69.50
2018-01-18T11:16:58.369Z,70.50
2018-01-18T11:19:25.903Z,70.70
2018-01-18T11:21:53.444Z,71.60
2018-01-18T11:24:20.970Z,71.50
2018-01-18T11:26:48.630Z,71.30
2018-01-18T11:29:16.205Z,71.50
2018-01-18T11:31:44.572Z,71.50
2018-01-18T11:34:12.134Z,71.50
2018-01-18T11:36:39.707Z,71.60
2018-01-18T11:39:09.308Z,72.30
2018-01-18T11:41:36.925Z,72.90
2018-01-18T11:44:04.485Z,74.50
2018-01-18T11:46:32.083Z,75.30
2018-01-18T11:48:59.796Z,75.20
2018-01-18T11:51:27.337Z,74.80
2018-01-18T11:53:56.373Z,76.10
2018-01-18T11:56:23.959Z,76.10
2018-01-18T11:58:51.546Z,75.50
2018-01-18T12:01:19.118Z,74.10
2018-01-18T12:03:47.507Z,73.20
2018-01-18T12:06:15.839Z,73.00
2018-01-18T12:08:43.500Z,73.00
2018-01-18T12:11:11.166Z,73.00
2018-01-18T12:13:38.764Z,72.70
2018-01-18T12:16:06.308Z,72.50
2018-01-18T12:18:33.890Z,71.70
2018-01-18T12:21:02.196Z,73.00
2018-01-18T12:23:29.738Z,72.30
2018-01-18T12:25:57.345Z,72.70
2018-01-18T12:28:27.998Z,73.10
2018-01-18T12:30:55.547Z,72.40
2018-01-18T12:33:23.115Z,71.80
2018-01-18T12:35:50.669Z,72.40
2018-01-18T12:38:19.133Z,74.60
2018-01-18T12:40:47.830Z,75.10
2018-01-18T12:43:15.370Z,76.40
2018-01-18T12:45:42.940Z,77.20
2018-01-18T12:48:11.424Z,77.90
2018-01-18T12:50:40.410Z,78.20
2018-01-18T12:53:07.968Z,78.40
2018-01-18T12:55:36.293Z,76.60
2018-01-18T12:58:03.868Z,75.30
2018-01-18T13:00:31.392Z,74.70
2018-01-18T13:02:58.946Z,74.80
2018-01-18T13:05:26.536Z,75.00
2018-01-18T13:07:54.101Z,75.00
2018-01-18T13:10:22.347Z,75.50
2018-01-18T13:12:50.606Z,76.20
2018-01-18T13:15:18.939Z,77.20
2018-01-18T13:17:46.485Z,77.50
2018-01-18T13:20:14.036Z,78.10
2018-01-18T13:22:42.302Z,78.30
2018-01-18T13:25:09.873Z,78.40
2018-01-18T13:27:48.749Z,79.00
2018-01-18T13:30:17.077Z,79.90
2018-01-18T13:32:45.532Z,79.80
2018-01-18T13:35:13.915Z,80.50
2018-01-18T13:37:46.218Z,80.40
2018-01-18T13:40:13.785Z,80.50
2018-01-18T13:42:41.774Z,80.40
2018-01-18T13:45:09.323Z,80.40
2018-01-18T13:47:39.025Z,80.80
2018-01-18T13:50:06.569Z,81.20
2018-01-18T13:52:34.156Z,81.30
2018-01-18T13:55:01.721Z,80.70
2018-01-18T13:57:34.380Z,80.50
2018-01-18T14:00:03.257Z,79.30
2018-01-18T14:02:30.804Z,79.00
2018-01-18T14:04:59.696Z,81.40
2018-01-18T14:07:29.133Z,82.00
2018-01-18T14:09:56.740Z,81.90
2018-01-18T14:12:24.315Z,81.50
2018-01-18T14:14:52.669Z,82.10
2018-01-18T14:17:22.416Z,83.10
2018-01-18T14:19:49.955Z,82.50
2018-01-18T14:22:17.496Z,82.50
2018-01-18T14:24:45.158Z,81.60
2018-01-18T14:27:24.441Z,81.40
2018-01-18T14:29:53.038Z,81.40
2018-01-18T14:32:21.344Z,78.70
2018-01-18T14:34:48.951Z,78.70
2018-01-18T14:37:16.536Z,77.90
2018-01-18T14:39:44.241Z,76.80
2018-01-18T14:42:11.933Z,76.20
2018-01-18T14:44:39.501Z,76.50
2018-01-18T14:47:07.927Z,75.80
2018-01-18T14:49:38.995Z,75.10
2018-01-18T14:52:06.561Z,75.80
2018-01-18T14:54:34.141Z,75.10
2018-01-18T14:57:02.719Z,74.70
2018-01-18T14:59:32.336Z,75.60
2018-01-18T15:02:00.437Z,76.10
2018-01-18T15:04:28.090Z,76.10
2018-01-18T15:06:55.679Z,76.40
2018-01-18T15:09:23.220Z,77.00
2018-01-18T15:11:50.796Z,76.70
2018-01-18T15:14:18.370Z,77.20
2018-01-18T15:16:56.365Z,76.90
2018-01-18T15:19:24.155Z,77.40
2018-01-18T15:21:51.815Z,76.40
2018-01-18T15:24:19.442Z,73.40
2018-01-18T15:26:47.690Z,73.40
2018-01-18T15:29:17.333Z,73.70
2018-01-18T15:31:44.885Z,73.50
2018-01-18T15:34:12.451Z,73.50
2018-01-18T15:36:40.022Z,73.60
2018-01-18T15:39:11.223Z,74.10
2018-01-18T15:41:38.809Z,73.90
2018-01-18T15:44:06.356Z,75.40
2018-01-18T15:46:33.904Z,75.20
2018-01-18T15:49:03.450Z,75.80
2018-01-18T15:51:30.992Z,76.80
2018-01-18T15:53:58.557Z,75.20
2018-01-18T15:56:26.129Z,74.90
2018-01-18T15:58:53.669Z,75.20
2018-01-18T16:01:21.220Z,75.00
2018-01-18T16:03:48.810Z,75.50
2018-01-18T16:06:16.358Z,75.60
2018-01-18T16:08:43.942Z,75.80
2018-01-18T16:11:11.562Z,75.90
2018-01-18T16:13:39.131Z,76.20
2018-01-18T16:16:06.691Z,76.60
2018-01-18T16:18:34.265Z,76.90
2018-01-18T16:21:01.813Z,77.50
2018-01-18T16:23:29.363Z,77.70
2018-01-18T16:25:56.940Z,77.90
2018-01-18T16:28:27.264Z,78.00
2018-01-18T16:30:54.881Z,78.10
2018-01-18T16:33:23.227Z,78.30
2018-01-18T16:35:50.757Z,78.30
2018-01-18T16:38:18.348Z,77.60
2018-01-18T16:40:45.997Z,77.40
2018-01-18T16:43:13.826Z,77.10
2018-01-18T16:45:43.378Z,75.90
2018-01-18T16:48:11.966Z,75.90
2018-01-18T16:50:39.608Z,76.10
2018-01-18T16:53:07.213Z,75.80
2018-01-18T16:55:34.775Z,75.80
2018-01-18T16:58:03.470Z,75.30
2018-01-18T17:00:31.057Z,76.10
2018-01-18T17:02:58.696Z,76.30
2018-01-18T17:05:28.274Z,77.20
2018-01-18T17:07:59.263Z,77.00
2018-01-18T17:10:26.855Z,77.10
2018-01-18T17:12:54.490Z,76.10
2018-01-18T17:15:22.832Z,77.30
2018-01-18T17:17:50.379Z,76.60
2018-01-18T17:20:18.436Z,76.80
2018-01-18T17:22:46.021Z,76.80
2018-01-18T17:25:13.577Z,77.10
2018-01-18T17:27:42.179Z,77.00
2018-01-18T17:30:09.763Z,77.20
2018-01-18T17:32:37.313Z,77.10
2018-01-18T17:35:05.767Z,77.40
2018-01-18T17:37:52.915Z,77.50
2018-01-18T17:40:20.489Z,77.40
2018-01-18T17:42:48.026Z,77.10
2018-01-18T17:45:15.597Z,77.40
2018-01-18T17:47:43.204Z,78.00
2018-01-18T17:50:11.537Z,78.80
2018-01-18T17:52:39.090Z,78.70
2018-01-18T17:55:06.696Z,78.80
2018-01-18T17:57:36.242Z,78.70
2018-01-18T18:00:03.894Z,79.10
2018-01-18T18:02:31.759Z,79.30
2018-01-18T18:04:59.505Z,79.70
2018-01-18T18:07:27.164Z,79.40
2018-01-18T18:09:54.803Z,79.70
2018-01-18T18:12:22.389Z,80.30
2018-01-18T18:14:50.749Z,80.70
2018-01-18T18:17:18.401Z,80.70
2018-01-18T18:19:49.477Z,80.70
2018-01-18T18:22:17.046Z,81.10
2018-01-18T18:24:46.585Z,81.20
2018-01-18T18:27:16.193Z,81.00
2018-01-18T18:29:47.419Z,82.10
2018-01-18T18:32:16.763Z,81.40
2018-01-18T18:34:44.386Z,82.10
2018-01-18T18:37:12.771Z,82.30
2018-01-18T18:39:40.356Z,82.30
2018-01-18T18:42:07.978Z,81.90
2018-01-18T18:44:37.072Z,82.90
2018-01-18T18:47:18.204Z,82.40
2018-01-18T18:49:46.922Z,82.30
2018-01-18T18:52:14.523Z,82.30
2018-01-18T18:54:42.947Z,83.30
2018-01-18T18:57:10.577Z,83.30
2018-01-18T18:59:51.933Z,83.50
2018-01-18T19:02:19.525Z,83.40
2018-01-18T19:04:47.077Z,83.30
2018-01-18T19:07:14.661Z,83.40
2018-01-18T19:09:42.271Z,83.30
2018-01-18T19:12:09.870Z,83.90
2018-01-18T19:14:37.462Z,84.60
2018-01-18T19:17:05.088Z,84.80
2018-01-18T19:19:35.372Z,84.30
2018-01-18T19:22:04.749Z,84.50
2018-01-18T19:24:34.398Z,85.10
2018-01-18T19:27:02.081Z,84.40
2018-01-18T19:29:34.452Z,84.10
2018-01-18T19:32:02.096Z,84.00
2018-01-18T19:34:29.668Z,84.70
2018-01-18T19:36:57.281Z,84.80
2018-01-18T19:39:25.870Z,85.30
2018-01-18T19:41:53.437Z,85.30
2018-01-18T19:44:21.295Z,85.20
2018-01-18T19:46:48.951Z,85.00
2018-01-18T19:49:17.447Z,84.30
2018-01-18T19:51:45.947Z,84.60
2018-01-18T19:54:13.511Z,84.40
2018-01-18T19:56:41.071Z,84.80
2018-01-18T19:59:10.368Z,84.80
2018-01-18T20:01:38.000Z,84.70
2018-01-18T20:04:05.688Z,84.70
2018-01-18T20:06:33.309Z,84.30
2018-01-18T20:09:02.408Z,84.70
2018-01-18T20:11:29.989Z,84.70
2018-01-18T20:13:57.550Z,85.30
2018-01-18T20:16:25.111Z,85.40
2018-01-18T20:18:54.692Z,85.60
2018-01-18T20:21:22.266Z,85.80
2018-01-18T20:23:50.598Z,85.60
2018-01-18T20:26:18.198Z,85.60
2018-01-18T20:28:46.834Z,85.10
2018-01-18T20:31:14.420Z,85.10
2018-01-18T20:33:41.986Z,85.20
2018-01-18T20:36:09.551Z,85.10
2018-01-18T20:38:37.144Z,85.10
2018-01-18T20:41:05.467Z,84.70
2018-01-18T20:43:33.931Z,84.70
2018-01-18T20:46:04.603Z,85.00
2018-01-18T20:48:32.162Z,85.00
2018-01-18T20:50:59.721Z,85.00
2018-01-18T20:53:27.279Z,84.60
2018-01-18T20:55:56.678Z,84.60
2018-01-18T20:58:26.200Z,84.70
2018-01-18T21:00:55.470Z,84.80
2018-01-18T21:03:23.043Z,84.60
2018-01-18T21:05:51.390Z,85.00
2018-01-18T21:08:38.222Z,85.00
2018-01-18T21:11:05.834Z,85.00
2018-01-18T21:13:34.180Z,85.60
2018-01-18T21:16:01.744Z,85.00
2018-01-18T21:18:32.272Z,86.70
2018-01-18T21:20:59.918Z,86.10
2018-01-18T21:23:29.424Z,85.80
2018-01-18T21:25:57.091Z,86.40
2018-01-18T21:28:24.761Z,85.90
2018-01-18T21:30:52.313Z,85.60
2018-01-18T21:33:19.891Z,85.60
2018-01-18T21:35:47.486Z,85.30
2018-01-18T21:38:17.280Z,85.30
2018-01-18T21:40:44.851Z,85.30
2018-01-18T21:43:12.422Z,85.10
2018-01-18T21:45:40.750Z,85.60
2018-01-18T21:48:09.882Z,85.50
2018-01-18T21:50:37.465Z,85.30
2018-01-18T21:53:05.580Z,84.90
2018-01-18T21:55:33.191Z,85.20
2018-01-18T21:58:00.858Z,85.10
2018-01-18T22:00:28.410Z,84.60
2018-01-18T22:02:56.185Z,84.80
2018-01-18T22:05:23.752Z,84.80
2018-01-18T22:07:51.318Z,85.00
2018-01-18T22:10:18.921Z,85.00
2018-01-18T22:12:47.243Z,85.50
2018-01-18T22:15:15.449Z,84.80
2018-01-18T22:17:43.025Z,85.30
2018-01-18T22:20:11.377Z,85.30
2018-01-18T22:22:39.523Z,85.20
2018-01-18T22:25:07.072Z,85.40
2018-01-18T22:27:34.647Z,85.30
2018-01-18T22:30:02.224Z,84.80
2018-01-18T22:32:29.776Z,84.80
2018-01-18T22:34:57.324Z,85.00
2018-01-18T22:37:24.966Z,85.60
2018-01-18T22:39:53.292Z,86.00
2018-01-18T22:42:20.846Z,86.00
2018-01-18T22:44:48.442Z,86.10
2018-01-18T22:47:16.009Z,85.90
2018-01-18T22:49:45.103Z,85.90
2018-01-18T22:52:12.689Z,85.80
2018-01-18T22:54:41.027Z,85.90
2018-01-18T22:57:09.163Z,85.90
2018-01-18T22:59:38.869Z,85.20
2018-01-18T23:02:14.357Z,85.60
2018-01-18T23:04:41.961Z,85.70
2018-01-18T23:07:09.517Z,85.80
2018-01-18T23:09:37.839Z,85.60
2018-01-18T23:12:05.429Z,85.60
2018-01-18T23:14:34.369Z,85.60
2018-01-18T23:17:01.915Z,85.50
2018-01-18T23:19:30.246Z,85.50
2018-01-18T23:21:57.796Z,85.40
2018-01-18T23:24:25.336Z,85.40
2018-01-18T23:26:52.928Z,85.60
2018-01-18T23:29:26.116Z,85.60
2018-01-18T23:31:53.675Z,85.50
2018-01-18T23:34:21.227Z,85.50
2018-01-18T23:36:48.781Z,85.70
2018-01-18T23:39:20.079Z,86.10
2018-01-18T23:41:47.621Z,86.10
2018-01-18T23:44:15.169Z,86.20
2018-01-18T23:46:42.800Z,86.10
2018-01-18T23:49:36.718Z,85.60
2018-01-18T23:52:04.327Z,85.60
2018-01-18T23:54:31.913Z,84.50
2018-01-18T23:56:59.468Z,84.80
2018-01-18T23:59:27.792Z,85.00
